createdAt,value
2023-03-02T00:01:25.416Z,10.20
2023-03-02T00:03:54.001Z,11.10
2023-03-02T00:06:22.126Z,11.18
2023-03-02T00:08:50.208Z,10.55
2023-03-02T00:11:18.300Z,11.52
2023-03-02T00:13:47.727Z,12.02
2023-03-02T00:16:15.910Z,10.70
2023-03-02T00:18:43.998Z,11.05
2023-03-02T00:21:12.045Z,10.80
2023-03-02T00:23:40.097Z,11.45
2023-03-02T00:26:08.244Z,10.90
2023-03-02T00:28:36.415Z,10.55
2023-03-02T00:31:07.793Z,11.38
2023-03-02T00:33:36.298Z,10.90
2023-03-02T00:36:04.773Z,11.23
2023-03-02T00:38:33.085Z,11.93
2023-03-02T00:41:01.228Z,12.40
2023-03-02T00:43:29.956Z,12.30
2023-03-02T00:45:59.018Z,10.95
2023-03-02T00:48:28.491Z,10.98
2023-03-02T00:50:56.669Z,11.48
2023-03-02T00:53:24.742Z,11.00
2023-03-02T00:55:56.191Z,11.25
2023-03-02T00:58:27.306Z,10.73
2023-03-02T01:00:57.061Z,11.02
2023-03-02T01:03:25.964Z,10.73
2023-03-02T01:05:56.365Z,11.85
2023-03-02T01:08:25.200Z,10.95
2023-03-02T01:10:54.378Z,10.93
2023-03-02T01:13:22.796Z,11.25
2023-03-02T01:15:50.890Z,11.98
2023-03-02T01:18:19.246Z,11.13
2023-03-02T01:20:47.360Z,10.77
2023-03-02T01:23:16.934Z,11.75
2023-03-02T01:25:45.010Z,12.20
2023-03-02T01:28:13.236Z,11.45
2023-03-02T01:30:41.465Z,12.13
2023-03-02T01:33:10.577Z,11.90
2023-03-02T01:35:38.783Z,12.15
2023-03-02T01:38:07.011Z,12.57
2023-03-02T01:40:36.635Z,11.57
2023-03-02T01:43:11.418Z,11.40
2023-03-02T01:45:53.360Z,14.85
2023-03-02T01:48:36.326Z,12.18
2023-03-02T01:51:06.597Z,13.15
2023-03-02T01:53:37.556Z,11.85
2023-03-02T01:56:08.082Z,11.65
2023-03-02T01:58:38.574Z,12.43
2023-03-02T02:01:15.375Z,12.82
2023-03-02T02:03:45.534Z,12.82
2023-03-02T02:06:20.609Z,12.25
2023-03-02T02:08:49.884Z,13.32
2023-03-02T02:11:19.647Z,13.13
2023-03-02T02:13:51.443Z,13.68
2023-03-02T02:16:19.737Z,14.00
2023-03-02T02:18:47.967Z,13.15
2023-03-02T02:21:17.494Z,12.38
2023-03-02T02:23:57.079Z,13.07
2023-03-02T02:26:31.590Z,12.35
2023-03-02T02:29:02.528Z,12.00
2023-03-02T02:31:36.699Z,12.35
2023-03-02T02:34:13.626Z,13.05
2023-03-02T02:36:46.851Z,13.38
2023-03-02T02:39:21.763Z,12.20
2023-03-02T02:41:55.363Z,13.05
2023-03-02T02:44:24.086Z,12.40
2023-03-02T02:46:52.291Z,12.90
2023-03-02T02:49:29.807Z,12.27
2023-03-02T02:51:58.435Z,12.82
2023-03-02T02:54:30.238Z,13.32
2023-03-02T02:57:02.572Z,12.35
2023-03-02T02:59:36.664Z,12.27
2023-03-02T03:02:05.152Z,12.32
2023-03-02T03:04:34.092Z,12.80
2023-03-02T03:07:05.688Z,12.38
2023-03-02T03:09:34.851Z,11.82
2023-03-02T03:12:09.724Z,12.85
2023-03-02T03:14:41.724Z,12.35
2023-03-02T03:17:14.052Z,13.43
2023-03-02T03:19:51.925Z,12.60
2023-03-02T03:22:20.635Z,12.07
2023-03-02T03:24:51.156Z,12.65
2023-03-02T03:27:21.560Z,11.10
2023-03-02T03:29:49.873Z,11.13
2023-03-02T03:32:20.858Z,12.70
2023-03-02T03:34:51.608Z,10.80
2023-03-02T03:37:32.803Z,11.50
2023-03-02T03:40:01.414Z,10.35
2023-03-02T03:42:32.360Z,11.10
2023-03-02T03:45:01.383Z,11.15
2023-03-02T03:47:29.858Z,10.85
2023-03-02T03:49:58.282Z,10.55
2023-03-02T03:52:30.761Z,11.05
2023-03-02T03:55:07.700Z,11.60
2023-03-02T03:57:38.104Z,10.98
2023-03-02T04:00:10.640Z,11.25
2023-03-02T04:02:47.790Z,11.13
2023-03-02T04:05:16.422Z,11.07
2023-03-02T04:07:45.156Z,10.35
2023-03-02T04:10:13.773Z,11.20
2023-03-02T04:12:45.488Z,11.40
2023-03-02T04:15:16.610Z,10.05
2023-03-02T04:17:46.803Z,10.73
2023-03-02T04:20:18.588Z,10.70
2023-03-02T04:22:51.575Z,9.68
2023-03-02T04:25:23.424Z,11.75
2023-03-02T04:27:56.821Z,11.15
2023-03-02T04:30:29.058Z,8.93
2023-03-02T04:32:58.033Z,10.52
2023-03-02T04:35:30.981Z,10.57
2023-03-02T04:38:00.697Z,9.70
2023-03-02T04:40:29.494Z,10.30
2023-03-02T04:42:58.947Z,9.18
2023-03-02T04:45:27.155Z,9.95
2023-03-02T04:47:55.294Z,9.80
2023-03-02T04:50:23.635Z,8.88
2023-03-02T04:52:51.850Z,9.15
2023-03-02T04:55:23.379Z,9.18
2023-03-02T04:57:51.675Z,8.50
2023-03-02T05:00:22.203Z,9.57
2023-03-02T05:02:50.798Z,8.57
2023-03-02T05:05:22.100Z,9.65
2023-03-02T05:07:50.840Z,10.10
2023-03-02T05:10:20.436Z,8.80
2023-03-02T05:13:02.425Z,8.63
2023-03-02T05:15:34.688Z,8.95
2023-03-02T05:18:03.545Z,8.40
2023-03-02T05:20:32.388Z,9.05
2023-03-02T05:23:02.508Z,8.32
2023-03-02T05:25:32.817Z,9.57
2023-03-02T05:28:01.759Z,8.45
2023-03-02T05:30:32.625Z,9.40
2023-03-02T05:33:00.836Z,8.25
2023-03-02T05:35:29.101Z,8.80
2023-03-02T05:37:57.536Z,9.38
2023-03-02T05:40:25.759Z,7.38
2023-03-02T05:42:53.977Z,9.98
2023-03-02T05:45:26.084Z,8.40
2023-03-02T05:47:56.570Z,8.57
2023-03-02T05:50:25.713Z,8.93
2023-03-02T05:52:54.026Z,7.40
2023-03-02T05:55:22.322Z,7.90
2023-03-02T05:57:51.235Z,7.32
2023-03-02T06:00:20.470Z,9.05
2023-03-02T06:02:48.898Z,8.75
2023-03-02T06:05:21.849Z,7.35
2023-03-02T06:07:50.304Z,9.00
2023-03-02T06:10:18.792Z,7.78
2023-03-02T06:12:46.990Z,7.97
2023-03-02T06:15:18.905Z,7.45
2023-03-02T06:17:47.237Z,8.07
2023-03-02T06:20:16.427Z,7.25
2023-03-02T06:22:47.624Z,7.80
2023-03-02T06:25:18.683Z,7.78
2023-03-02T06:27:47.354Z,7.00
2023-03-02T06:30:17.893Z,8.63
2023-03-02T06:32:46.202Z,7.53
2023-03-02T06:35:14.959Z,7.00
2023-03-02T06:37:44.342Z,6.80
2023-03-02T06:40:14.806Z,8.00
2023-03-02T06:42:43.953Z,6.45
2023-03-02T06:45:12.803Z,7.45
2023-03-02T06:47:41.061Z,6.85
2023-03-02T06:50:11.062Z,6.95
2023-03-02T06:52:39.157Z,7.70
2023-03-02T06:55:08.407Z,6.30
2023-03-02T06:57:38.093Z,6.22
2023-03-02T07:00:09.995Z,6.45
2023-03-02T07:02:38.786Z,6.80
2023-03-02T07:05:07.904Z,6.35
2023-03-02T07:07:36.178Z,6.10
2023-03-02T07:10:05.354Z,5.60
2023-03-02T07:12:33.684Z,5.95
2023-03-02T07:15:04.533Z,5.50
2023-03-02T07:17:34.721Z,5.90
2023-03-02T07:20:03.943Z,7.10
2023-03-02T07:22:32.016Z,6.65
2023-03-02T07:25:00.122Z,6.25
2023-03-02T07:27:28.435Z,6.45
2023-03-02T07:29:56.456Z,5.85
2023-03-02T07:32:25.893Z,6.00
2023-03-02T07:34:54.003Z,6.13
2023-03-02T07:37:22.106Z,6.10
2023-03-02T07:39:50.355Z,6.38
2023-03-02T07:42:19.081Z,6.15
2023-03-02T07:44:54.102Z,5.93
2023-03-02T07:47:22.305Z,6.35
2023-03-02T07:49:52.028Z,7.10
2023-03-02T07:52:20.040Z,5.40
2023-03-02T07:54:48.018Z,6.27
2023-03-02T07:57:18.091Z,5.77
2023-03-02T07:59:46.281Z,5.95
2023-03-02T08:02:17.019Z,7.03
2023-03-02T08:04:45.296Z,6.33
2023-03-02T08:07:14.946Z,5.90
2023-03-02T08:09:42.972Z,6.53
2023-03-02T08:12:11.624Z,8.03
2023-03-02T08:14:40.311Z,6.70
2023-03-02T08:17:09.028Z,6.80
2023-03-02T08:19:37.039Z,6.90
2023-03-02T08:22:05.336Z,6.67
2023-03-02T08:24:34.776Z,6.67
2023-03-02T08:27:03.685Z,6.73
2023-03-02T08:29:32.050Z,6.80
2023-03-02T08:32:00.542Z,6.20
2023-03-02T08:34:28.910Z,8.30
2023-03-02T08:36:57.086Z,6.83
2023-03-02T08:39:25.086Z,7.20
2023-03-02T08:41:54.942Z,7.33
2023-03-02T08:44:23.157Z,6.73
2023-03-02T08:46:54.532Z,12.27
2023-03-02T08:49:22.672Z,7.30
2023-03-02T08:51:53.604Z,7.40
2023-03-02T08:54:22.898Z,7.60
2023-03-02T08:56:51.167Z,7.57
2023-03-02T08:59:21.687Z,9.37
2023-03-02T09:01:50.050Z,7.17
2023-03-02T09:04:18.325Z,7.80
2023-03-02T09:06:46.962Z,6.60
2023-03-02T09:09:16.406Z,7.50
2023-03-02T09:11:44.896Z,7.10
2023-03-02T09:14:13.025Z,7.20
2023-03-02T09:16:42.488Z,6.40
2023-03-02T09:19:11.544Z,6.17
2023-03-02T09:21:39.636Z,6.57
2023-03-02T09:24:08.079Z,6.00
2023-03-02T09:26:36.150Z,6.60
2023-03-02T09:29:04.143Z,6.53
2023-03-02T09:31:32.696Z,6.43
2023-03-02T09:34:02.370Z,7.47
2023-03-02T09:36:32.637Z,6.93
2023-03-02T09:39:00.779Z,6.70
2023-03-02T09:42:04.590Z,6.67
2023-03-02T09:44:54.781Z,7.40
2023-03-02T09:47:35.538Z,6.63
2023-03-02T09:50:22.670Z,6.90
2023-03-02T09:53:05.478Z,6.77
2023-03-02T09:55:37.145Z,7.03
2023-03-02T09:58:07.480Z,7.07
2023-03-02T10:00:37.559Z,7.83
2023-03-02T10:03:17.193Z,8.83
2023-03-02T10:05:48.854Z,6.67
2023-03-02T10:08:20.891Z,5.90
2023-03-02T10:10:58.324Z,5.37
2023-03-02T10:13:30.925Z,6.10
2023-03-02T10:16:13.814Z,6.10
2023-03-02T10:18:47.779Z,6.30
2023-03-02T10:21:23.589Z,5.53
2023-03-02T10:23:57.667Z,5.50
2023-03-02T10:26:39.668Z,6.67
2023-03-02T10:29:23.747Z,5.40
2023-03-02T10:31:58.183Z,5.97
2023-03-02T10:34:30.309Z,6.47
2023-03-02T10:36:59.899Z,5.20
2023-03-02T10:39:27.907Z,5.50
2023-03-02T10:42:00.530Z,5.63
2023-03-02T10:44:31.400Z,5.90
2023-03-02T10:46:59.725Z,5.27
2023-03-02T10:49:30.542Z,4.90
2023-03-02T10:52:02.957Z,5.60
2023-03-02T10:54:32.758Z,6.03
2023-03-02T10:57:03.211Z,4.80
2023-03-02T10:59:43.254Z,6.30
2023-03-02T11:02:18.017Z,5.63
2023-03-02T11:04:46.540Z,4.57
2023-03-02T11:07:20.251Z,4.20
2023-03-02T11:10:02.935Z,4.33
2023-03-02T11:12:32.707Z,4.57
2023-03-02T11:15:20.358Z,5.27
2023-03-02T11:17:51.465Z,5.50
2023-03-02T11:20:26.045Z,6.03
2023-03-02T11:23:04.916Z,4.40
2023-03-02T11:25:38.669Z,4.70
2023-03-02T11:28:13.506Z,5.53
2023-03-02T11:30:48.127Z,5.70
2023-03-02T11:33:20.697Z,5.67
2023-03-02T11:35:54.900Z,4.50
2023-03-02T11:38:27.408Z,5.10
2023-03-02T11:40:58.477Z,5.40
2023-03-02T11:43:26.550Z,5.83
2023-03-02T11:45:59.728Z,6.00
2023-03-02T11:48:32.484Z,6.13
2023-03-02T11:51:04.942Z,6.00
2023-03-02T11:53:42.548Z,5.47
2023-03-02T11:56:10.808Z,5.37
2023-03-02T11:58:39.666Z,6.10
2023-03-02T12:01:11.184Z,5.57
2023-03-02T12:03:44.956Z,5.73
2023-03-02T12:06:36.707Z,6.20
2023-03-02T12:09:26.117Z,6.30
2023-03-02T12:11:57.479Z,8.00
2023-03-02T12:14:37.933Z,12.83
2023-03-02T12:17:22.227Z,8.07
2023-03-02T12:19:52.604Z,8.80
2023-03-02T12:22:29.956Z,9.77
2023-03-02T12:25:06.964Z,7.00
2023-03-02T12:27:38.941Z,6.57
2023-03-02T12:30:25.157Z,7.20
2023-03-02T12:33:19.912Z,10.40
2023-03-02T12:35:50.050Z,12.03
2023-03-02T12:38:30.897Z,8.07
2023-03-02T12:41:17.589Z,6.17
2023-03-02T12:43:54.565Z,5.80
2023-03-02T12:46:29.170Z,5.70
2023-03-02T12:49:08.336Z,6.33
2023-03-02T12:51:51.238Z,5.47
2023-03-02T12:54:22.365Z,5.90
2023-03-02T12:57:02.815Z,5.83
2023-03-02T12:59:31.161Z,6.03
2023-03-02T13:02:17.653Z,6.07
2023-03-02T13:04:46.234Z,7.80
2023-03-02T13:07:19.312Z,7.20
2023-03-02T13:09:56.753Z,8.30
2023-03-02T13:12:29.346Z,6.27
2023-03-02T13:14:59.367Z,6.10
2023-03-02T13:17:30.965Z,7.33
2023-03-02T13:20:00.411Z,5.63
2023-03-02T13:22:29.361Z,6.20
2023-03-02T13:25:00.398Z,5.80
2023-03-02T13:27:31.089Z,6.23
2023-03-02T13:30:12.133Z,6.70
2023-03-02T13:32:43.257Z,6.20
2023-03-02T13:35:20.342Z,5.80
2023-03-02T13:37:48.445Z,5.60
2023-03-02T13:40:34.566Z,6.57
2023-03-02T13:43:08.646Z,6.07
2023-03-02T13:45:37.229Z,6.60
2023-03-02T13:48:16.496Z,9.20
2023-03-02T13:50:54.078Z,6.60
2023-03-02T13:53:22.466Z,9.30
2023-03-02T13:55:50.713Z,7.50
2023-03-02T13:58:21.347Z,6.20
2023-03-02T14:00:50.516Z,7.40
2023-03-02T14:03:28.573Z,6.37
2023-03-02T14:05:58.264Z,7.80
2023-03-02T14:08:26.774Z,7.47
2023-03-02T14:10:57.921Z,8.50
2023-03-02T14:13:31.021Z,7.83
2023-03-02T14:15:59.096Z,8.07
2023-03-02T14:18:30.598Z,6.73
2023-03-02T14:20:59.084Z,7.60
2023-03-02T14:23:27.763Z,9.23
2023-03-02T14:25:57.920Z,10.40
2023-03-02T14:28:31.152Z,8.27
2023-03-02T14:30:59.882Z,6.33
2023-03-02T14:33:28.124Z,6.57
2023-03-02T14:35:59.499Z,6.87
2023-03-02T14:38:28.793Z,20.57
2023-03-02T14:40:57.623Z,7.90
2023-03-02T14:43:27.344Z,7.00
2023-03-02T14:45:55.430Z,6.37
2023-03-02T14:48:23.499Z,6.73
2023-03-02T14:50:52.788Z,7.97
2023-03-02T14:53:27.403Z,6.30
2023-03-02T14:55:56.576Z,6.53
2023-03-02T14:58:32.255Z,6.10
2023-03-02T15:01:00.652Z,6.23
2023-03-02T15:03:29.559Z,6.00
2023-03-02T15:06:02.186Z,7.37
2023-03-02T15:08:30.969Z,8.07
2023-03-02T15:10:59.024Z,7.57
2023-03-02T15:13:28.394Z,7.80
2023-03-02T15:15:56.495Z,7.80
2023-03-02T15:18:24.573Z,9.77
2023-03-02T15:20:53.577Z,7.67
2023-03-02T15:23:21.546Z,8.50
2023-03-02T15:25:49.580Z,7.20
2023-03-02T15:28:17.603Z,6.93
2023-03-02T15:30:47.506Z,8.20
2023-03-02T15:33:15.538Z,7.47
2023-03-02T15:35:45.123Z,7.63
2023-03-02T15:38:13.201Z,7.63
2023-03-02T15:40:41.213Z,7.37
2023-03-02T15:43:09.429Z,7.30
2023-03-02T15:45:38.438Z,7.47
2023-03-02T15:48:08.021Z,7.40
2023-03-02T15:50:36.019Z,6.97
2023-03-02T15:53:04.621Z,7.40
2023-03-02T15:55:32.808Z,6.30
2023-03-02T15:58:00.792Z,7.50
2023-03-02T16:00:29.268Z,6.93
2023-03-02T16:02:57.382Z,6.90
2023-03-02T16:05:26.863Z,6.60
2023-03-02T16:07:54.865Z,6.97
2023-03-02T16:10:24.884Z,7.50
2023-03-02T16:12:52.992Z,6.73
2023-03-02T16:15:20.964Z,7.10
2023-03-02T16:17:49.190Z,6.80
2023-03-02T16:20:17.370Z,5.93
2023-03-02T16:22:46.751Z,6.70
2023-03-02T16:25:14.893Z,5.90
2023-03-02T16:27:47.044Z,6.77
2023-03-02T16:30:16.708Z,5.97
2023-03-02T16:32:44.783Z,6.37
2023-03-02T16:35:12.868Z,7.30
2023-03-02T16:37:41.640Z,6.60
2023-03-02T16:40:12.889Z,5.90
2023-03-02T16:42:42.172Z,7.00
2023-03-02T16:45:11.096Z,5.80
2023-03-02T16:47:39.239Z,5.77
2023-03-02T16:50:09.628Z,6.30
2023-03-02T16:52:37.813Z,6.53
2023-03-02T16:55:09.597Z,6.10
2023-03-02T16:57:39.095Z,21.47
2023-03-02T17:00:09.446Z,49.90
2023-03-02T17:02:38.335Z,23.07
2023-03-02T17:05:07.071Z,11.40
2023-03-02T17:07:35.089Z,8.37
2023-03-02T17:10:03.643Z,10.40
2023-03-02T17:12:31.773Z,10.47
2023-03-02T17:15:01.117Z,9.90
2023-03-02T17:17:29.198Z,10.70
2023-03-02T17:19:57.948Z,10.40
2023-03-02T17:22:26.034Z,9.50
2023-03-02T17:24:54.066Z,10.20
2023-03-02T17:27:25.639Z,11.80
2023-03-02T17:29:54.313Z,11.13
2023-03-02T17:32:25.085Z,11.20
2023-03-02T17:34:53.284Z,10.80
2023-03-02T17:37:21.662Z,9.57
2023-03-02T17:39:51.079Z,10.13
2023-03-02T17:42:19.486Z,10.87
2023-03-02T17:44:47.454Z,10.63
2023-03-02T17:47:16.447Z,10.97
2023-03-02T17:49:46.136Z,10.93
2023-03-02T17:52:15.304Z,12.50
2023-03-02T17:54:44.196Z,11.37
2023-03-02T17:57:13.011Z,11.60
2023-03-02T17:59:41.127Z,13.83
2023-03-02T18:02:09.241Z,15.00
2023-03-02T18:04:37.301Z,13.97
2023-03-02T18:07:06.676Z,11.77
2023-03-02T18:09:34.734Z,11.20
2023-03-02T18:12:03.419Z,10.40
2023-03-02T18:14:31.644Z,10.77
2023-03-02T18:16:59.734Z,11.07
2023-03-02T18:19:27.822Z,11.20
2023-03-02T18:21:56.690Z,11.30
2023-03-02T18:24:27.726Z,10.50
2023-03-02T18:26:55.789Z,10.93
2023-03-02T18:29:24.384Z,11.00
2023-03-02T18:31:53.272Z,10.80
2023-03-02T18:34:22.312Z,11.20
2023-03-02T18:36:50.661Z,11.13
2023-03-02T18:39:18.822Z,11.20
2023-03-02T18:41:48.529Z,11.37
2023-03-02T18:44:16.604Z,11.40
2023-03-02T18:46:44.918Z,10.37
2023-03-02T18:49:13.097Z,11.47
2023-03-02T18:51:41.072Z,10.40
2023-03-02T18:54:09.386Z,10.70
2023-03-02T18:56:40.467Z,10.93
2023-03-02T18:59:11.124Z,10.53
2023-03-02T19:01:39.632Z,11.03
2023-03-02T19:04:07.793Z,10.83
2023-03-02T19:06:35.870Z,10.17
2023-03-02T19:09:04.714Z,10.80
2023-03-02T19:11:32.887Z,11.93
2023-03-02T19:14:01.654Z,11.70
2023-03-02T19:16:31.327Z,11.27
2023-03-02T19:18:59.398Z,12.80
2023-03-02T19:21:27.425Z,11.90
2023-03-02T19:23:55.538Z,12.40
2023-03-02T19:26:23.658Z,13.00
2023-03-02T19:28:53.023Z,16.60
2023-03-02T19:31:21.184Z,18.10
2023-03-02T19:33:50.832Z,18.83
2023-03-02T19:36:18.879Z,16.30
2023-03-02T19:38:47.076Z,14.53
2023-03-02T19:41:17.532Z,13.47
2023-03-02T19:43:46.371Z,14.00
2023-03-02T19:46:14.806Z,13.03
2023-03-02T19:48:44.184Z,13.37
2023-03-02T19:51:15.069Z,11.80
2023-03-02T19:53:44.265Z,13.30
2023-03-02T19:56:14.738Z,15.30
2023-03-02T19:58:47.718Z,14.13
2023-03-02T20:01:21.616Z,14.17
2023-03-02T20:03:51.672Z,14.27
2023-03-02T20:06:22.556Z,13.50
2023-03-02T20:08:50.835Z,12.50
2023-03-02T20:11:19.444Z,12.90
2023-03-02T20:13:50.641Z,12.17
2023-03-02T20:16:22.817Z,13.27
2023-03-02T20:18:51.057Z,12.33
2023-03-02T20:21:21.241Z,12.93
2023-03-02T20:23:49.995Z,11.15
2023-03-02T20:26:18.135Z,11.55
2023-03-02T20:28:46.598Z,12.63
2023-03-02T20:31:16.141Z,12.43
2023-03-02T20:33:47.356Z,13.97
2023-03-02T20:36:17.215Z,12.93
2023-03-02T20:38:50.470Z,13.50
2023-03-02T20:41:19.021Z,12.40
2023-03-02T20:43:47.618Z,11.97
2023-03-02T20:46:21.856Z,14.60
2023-03-02T20:48:51.031Z,15.57
2023-03-02T20:51:20.117Z,25.08
2023-03-02T20:53:49.686Z,13.67
2023-03-02T20:56:19.234Z,14.32
2023-03-02T20:58:48.771Z,13.68
2023-03-02T21:01:19.727Z,18.10
2023-03-02T21:03:48.281Z,15.53
2023-03-02T21:06:17.421Z,17.13
2023-03-02T21:08:47.308Z,18.50
2023-03-02T21:11:20.622Z,18.25
2023-03-02T21:13:49.672Z,12.82
2023-03-02T21:16:20.996Z,14.05
2023-03-02T21:18:49.121Z,14.13
2023-03-02T21:21:20.198Z,12.90
2023-03-02T21:23:51.701Z,14.40
2023-03-02T21:26:21.887Z,14.07
2023-03-02T21:28:50.050Z,12.10
2023-03-02T21:31:19.549Z,13.60
2023-03-02T21:33:49.707Z,14.30
2023-03-02T21:36:19.726Z,13.68
2023-03-02T21:38:47.740Z,14.15
2023-03-02T21:41:16.039Z,14.88
2023-03-02T21:43:45.442Z,16.45
2023-03-02T21:46:15.218Z,29.02
2023-03-02T21:48:43.391Z,61.92
2023-03-02T21:51:12.290Z,21.08
2023-03-02T21:53:40.771Z,17.20
2023-03-02T21:56:09.448Z,17.70
2023-03-02T21:58:39.626Z,28.05
2023-03-02T22:01:09.150Z,19.80
2023-03-02T22:03:38.011Z,16.75
2023-03-02T22:06:06.351Z,15.40
2023-03-02T22:08:35.480Z,15.70
2023-03-02T22:11:03.735Z,17.88
2023-03-02T22:13:33.553Z,15.50
2023-03-02T22:16:14.674Z,14.55
2023-03-02T22:18:43.492Z,14.88
2023-03-02T22:21:33.489Z,14.27
2023-03-02T22:24:21.712Z,29.08
2023-03-02T22:26:58.307Z,18.77
2023-03-02T22:29:27.893Z,23.10
2023-03-02T22:32:01.670Z,20.73
2023-03-02T22:34:31.738Z,16.60
2023-03-02T22:40:01.686Z,14.57
2023-03-02T22:42:31.556Z,15.07
2023-03-02T22:45:06.998Z,14.80
2023-03-02T22:47:36.446Z,13.70
2023-03-02T22:50:20.203Z,14.60
2023-03-02T22:52:48.293Z,13.55
2023-03-02T22:55:37.585Z,16.40
2023-03-02T22:58:39.288Z,15.32
2023-03-02T23:01:19.356Z,14.23
2023-03-02T23:03:50.959Z,13.90
2023-03-02T23:06:27.213Z,13.50
2023-03-02T23:08:57.320Z,12.32
2023-03-02T23:11:25.888Z,12.68
2023-03-02T23:13:54.369Z,13.50
2023-03-02T23:16:24.339Z,14.20
2023-03-02T23:18:55.793Z,13.90
2023-03-02T23:21:28.240Z,13.82
2023-03-02T23:23:56.738Z,14.18
2023-03-02T23:26:24.882Z,15.23
2023-03-02T23:28:53.421Z,15.40
2023-03-02T23:31:21.532Z,14.55
2023-03-02T23:33:50.145Z,14.93
2023-03-02T23:36:20.872Z,13.93
2023-03-02T23:38:49.212Z,13.73
2023-03-02T23:41:18.371Z,13.73
2023-03-02T23:43:46.439Z,15.70
2023-03-02T23:46:14.733Z,14.23
2023-03-02T23:48:44.328Z,14.70
2023-03-02T23:51:12.771Z,15.70
2023-03-02T23:53:42.074Z,15.13
2023-03-02T23:56:10.404Z,16.50
2023-03-02T23:58:38.600Z,16.13
